createdAt,value
2022-11-01T10:19:30.391Z,0.77
2022-11-01T10:22:01.263Z,0.80
2022-11-01T10:24:46.578Z,0.57
2022-11-01T10:27:23.063Z,0.60
2022-11-01T10:30:02.837Z,0.60
2022-11-01T10:32:47.776Z,0.73
2022-11-01T10:35:22.740Z,0.60
2022-11-01T10:38:32.277Z,0.70
2022-11-01T10:41:12.059Z,0.50
2022-11-01T10:43:44.465Z,0.65
2022-11-01T10:46:19.947Z,0.70
2022-11-01T10:48:59.886Z,0.60
2022-11-01T10:51:28.691Z,0.70
2022-11-01T10:53:58.660Z,0.50
2022-11-01T10:56:28.822Z,0.70
2022-11-01T10:59:05.305Z,0.65
2022-11-01T11:01:38.284Z,0.60
2022-11-01T11:04:06.381Z,0.70
2022-11-01T11:06:33.655Z,0.70
2022-11-01T11:09:01.390Z,0.50
2022-11-01T11:14:00.320Z,0.40
2022-11-01T11:16:33.313Z,0.80
2022-11-01T11:19:16.130Z,0.60
2022-11-01T11:21:44.695Z,0.82
2022-11-01T11:24:19.813Z,0.70
2022-11-01T11:26:54.275Z,0.73
2022-11-01T11:29:30.242Z,0.77
2022-11-01T11:31:59.151Z,0.88
2022-11-01T11:34:30.950Z,0.90
2022-11-01T11:36:58.031Z,0.60
2022-11-01T11:39:28.761Z,0.82
2022-11-01T11:42:10.663Z,0.80
2022-11-01T11:44:43.307Z,0.85
2022-11-01T11:47:18.714Z,1.15
2022-11-01T11:49:45.192Z,0.70
2022-11-01T11:52:17.231Z,0.90
2022-11-01T11:54:44.330Z,0.90
2022-11-01T11:57:17.865Z,0.80
2022-11-01T12:02:26.727Z,1.10
2022-11-01T12:04:56.958Z,0.80
2022-11-01T12:07:35.245Z,0.93
2022-11-01T12:10:06.483Z,1.20
2022-11-01T12:12:35.658Z,0.90
2022-11-01T12:15:05.591Z,1.00
2022-11-01T12:17:44.081Z,1.00
2022-11-01T12:20:22.079Z,0.80
2022-11-01T12:23:06.960Z,1.00
2022-11-01T12:25:35.610Z,0.80
2022-11-01T12:28:34.531Z,2.35
2022-11-01T12:31:21.159Z,1.20
2022-11-01T12:34:15.816Z,1.20
2022-11-01T12:36:58.224Z,1.10
2022-11-01T12:39:43.966Z,1.25
2022-11-01T12:42:16.515Z,0.90
2022-11-01T12:44:47.018Z,0.90
2022-11-01T12:47:42.573Z,0.75
2022-11-01T12:50:26.962Z,1.05
2022-11-01T12:53:13.871Z,0.98
2022-11-01T12:55:42.276Z,1.30
2022-11-01T12:58:15.964Z,1.45
2022-11-01T13:00:42.586Z,1.02
2022-11-01T13:03:36.054Z,1.10
2022-11-01T13:06:14.028Z,1.20
2022-11-01T13:08:46.600Z,1.23
2022-11-01T13:11:25.648Z,1.23
2022-11-01T13:14:12.374Z,1.05
2022-11-01T13:16:43.671Z,1.13
2022-11-01T13:19:16.199Z,1.13
2022-11-01T13:22:14.974Z,1.60
2022-11-01T13:24:49.222Z,0.95
2022-11-01T13:27:21.119Z,1.30
2022-11-01T13:30:02.533Z,1.30
2022-11-01T13:32:44.585Z,1.20
2022-11-01T13:35:31.651Z,1.40
2022-11-01T13:38:05.596Z,1.10
2022-11-01T13:41:05.510Z,1.35
2022-11-01T13:43:44.013Z,0.98
2022-11-01T13:46:35.253Z,1.42
2022-11-01T13:49:17.081Z,1.00
2022-11-01T13:52:16.118Z,1.00
2022-11-01T13:54:50.736Z,1.10
2022-11-01T13:57:19.039Z,1.20
2022-11-01T14:00:04.410Z,1.23
2022-11-01T14:02:53.650Z,1.30
2022-11-01T14:05:37.081Z,1.00
2022-11-01T14:08:04.237Z,0.93
2022-11-01T14:10:31.395Z,1.27
2022-11-01T14:13:07.490Z,0.90
2022-11-01T14:16:01.664Z,1.05
2022-11-01T14:18:28.702Z,1.20
2022-11-01T14:20:56.983Z,1.17
2022-11-01T14:23:30.088Z,1.02
2022-11-01T14:26:34.867Z,1.00
2022-11-01T14:29:02.944Z,1.38
2022-11-01T14:31:33.894Z,1.30
2022-11-01T14:34:09.702Z,1.02
2022-11-01T14:36:39.878Z,1.05
2022-11-01T14:39:14.219Z,0.98
2022-11-01T14:41:41.556Z,1.23
2022-11-01T14:44:32.257Z,1.52
2022-11-01T14:47:01.975Z,1.05
2022-11-01T14:49:55.809Z,1.10
2022-11-01T14:52:32.129Z,0.93
2022-11-01T14:55:19.003Z,1.00
2022-11-01T14:57:45.977Z,1.42
2022-11-01T15:00:30.117Z,1.80
2022-11-01T15:03:01.266Z,1.20
2022-11-01T15:05:28.050Z,1.10
2022-11-01T15:07:56.599Z,1.02
2022-11-01T15:10:23.766Z,1.00
2022-11-01T15:12:59.260Z,1.10
2022-11-01T15:15:32.023Z,1.38
2022-11-01T15:18:00.979Z,1.50
2022-11-01T15:20:35.892Z,0.95
2022-11-01T15:23:18.265Z,1.02
2022-11-01T15:26:00.828Z,1.10
2022-11-01T15:28:33.393Z,1.45
2022-11-01T15:31:02.499Z,1.13
2022-11-01T15:33:32.627Z,1.08
2022-11-01T15:36:04.487Z,1.35
2022-11-01T15:38:34.629Z,1.08
2022-11-01T15:41:28.675Z,1.20
2022-11-01T15:43:57.703Z,1.02
2022-11-01T15:46:27.871Z,1.10
2022-11-01T15:48:56.766Z,1.73
2022-11-01T15:51:26.573Z,1.05
2022-11-01T15:53:58.585Z,1.20
2022-11-01T15:56:33.391Z,1.67
2022-11-01T15:59:01.380Z,1.48
2022-11-01T16:01:28.078Z,1.42
2022-11-01T16:04:04.104Z,1.40
2022-11-01T16:06:56.592Z,1.52
2022-11-01T16:09:39.472Z,1.30
2022-11-01T16:12:23.195Z,1.42
2022-11-01T16:14:59.046Z,1.10
2022-11-01T16:17:25.754Z,1.30
2022-11-01T16:19:52.864Z,1.42
2022-11-01T16:22:45.757Z,1.30
2022-11-01T16:25:18.102Z,1.60
2022-11-01T16:28:21.263Z,1.23
2022-11-01T16:30:51.318Z,1.30
2022-11-01T16:33:22.179Z,1.85
2022-11-01T16:35:54.312Z,2.00
2022-11-01T16:38:26.208Z,1.75
2022-11-01T16:40:56.015Z,2.35
2022-11-01T16:43:23.643Z,2.85
2022-11-01T16:45:50.686Z,2.80
2022-11-01T16:48:22.654Z,2.60
2022-11-01T16:50:49.260Z,2.17
2022-11-01T16:53:15.778Z,1.90
2022-11-01T16:55:44.431Z,2.78
2022-11-01T16:58:16.294Z,2.25
2022-11-01T17:00:52.422Z,2.58
2022-11-01T17:03:19.342Z,2.08
2022-11-01T17:05:56.315Z,2.70
2022-11-01T17:08:25.091Z,2.58
2022-11-01T17:10:51.914Z,3.47
2022-11-01T17:13:18.929Z,6.47
2022-11-01T17:15:47.891Z,4.65
2022-11-01T17:18:17.767Z,4.93
2022-11-01T17:20:46.898Z,6.35
2022-11-01T17:23:18.766Z,6.20
2022-11-01T17:25:48.056Z,6.45
2022-11-01T17:28:14.768Z,6.30
2022-11-01T17:30:41.303Z,6.40
2022-11-01T17:33:07.949Z,5.30
2022-11-01T17:35:35.423Z,6.15
2022-11-01T17:38:02.313Z,5.18
2022-11-01T17:40:29.296Z,6.10
2022-11-01T17:42:56.006Z,7.95
2022-11-01T17:45:23.086Z,10.20
2022-11-01T17:47:52.403Z,9.40
2022-11-01T17:50:19.360Z,6.38
2022-11-01T17:52:47.228Z,5.53
2022-11-01T17:57:40.992Z,4.50
2022-11-01T18:00:08.196Z,4.75
2022-11-01T18:02:39.207Z,5.55
2022-11-01T18:05:06.854Z,5.65
2022-11-01T18:07:44.341Z,5.13
2022-11-01T18:10:31.318Z,4.50
2022-11-01T18:13:13.198Z,4.43
2022-11-01T18:15:56.719Z,3.72
2022-11-01T18:18:29.425Z,3.22
2022-11-01T18:21:14.356Z,3.10
2022-11-01T18:23:42.800Z,3.22
2022-11-01T18:26:19.364Z,3.40
2022-11-01T18:28:45.919Z,2.92
2022-11-01T18:31:16.915Z,3.53
2022-11-01T18:34:01.633Z,3.05
2022-11-01T18:36:37.434Z,3.28
2022-11-01T18:39:13.325Z,3.72
2022-11-01T18:41:40.128Z,3.22
2022-11-01T18:44:11.328Z,3.35
2022-11-01T18:47:04.483Z,3.60
2022-11-01T18:49:31.313Z,3.22
2022-11-01T18:51:58.388Z,4.53
2022-11-01T18:54:28.278Z,3.30
2022-11-01T18:57:01.693Z,3.55
2022-11-01T18:59:38.260Z,3.83
2022-11-01T19:02:11.535Z,3.53
2022-11-01T19:04:39.574Z,3.45
2022-11-01T19:09:45.033Z,4.40
2022-11-01T19:12:17.562Z,3.42
2022-11-01T19:14:52.389Z,3.30
2022-11-01T19:17:24.482Z,3.72
2022-11-01T19:19:53.316Z,3.67
2022-11-01T19:22:39.537Z,3.30
2022-11-01T19:25:22.308Z,3.45
2022-11-01T19:27:53.956Z,3.60
2022-11-01T19:30:27.025Z,3.58
2022-11-01T19:32:55.215Z,3.72
2022-11-01T19:35:24.674Z,3.60
2022-11-01T19:37:53.611Z,3.80
2022-11-01T19:40:27.890Z,4.05
2022-11-01T19:42:55.164Z,3.95
2022-11-01T19:45:22.301Z,4.25
2022-11-01T19:47:50.493Z,4.05
2022-11-01T19:50:43.418Z,4.03
2022-11-01T19:53:16.733Z,4.45
2022-11-01T19:55:47.426Z,4.22
2022-11-01T19:58:27.772Z,4.07
2022-11-01T20:01:13.098Z,3.83
2022-11-01T20:03:43.854Z,4.00
2022-11-01T20:06:21.756Z,3.78
2022-11-01T20:08:56.282Z,3.88
2022-11-01T20:11:22.921Z,4.22
2022-11-01T20:13:49.661Z,3.60
2022-11-01T20:16:16.225Z,3.95
2022-11-01T20:18:42.826Z,3.65
2022-11-01T20:21:09.607Z,3.67
2022-11-01T20:23:36.886Z,4.35
2022-11-01T20:26:03.981Z,4.32
2022-11-01T20:28:31.643Z,3.60
2022-11-01T20:31:00.981Z,4.05
2022-11-01T20:33:27.990Z,3.47
2022-11-01T20:35:54.677Z,4.05
2022-11-01T20:38:21.278Z,49.30
2022-11-01T20:40:50.908Z,4.05
2022-11-01T20:43:18.116Z,3.50
2022-11-01T20:45:44.623Z,3.70
2022-11-01T20:48:11.162Z,4.15
2022-11-01T20:50:37.771Z,3.70
2022-11-01T20:53:06.414Z,3.70
2022-11-01T20:55:33.853Z,3.20
2022-11-01T20:58:01.026Z,3.60
2022-11-01T21:00:28.104Z,3.53
2022-11-01T21:02:57.029Z,3.72
2022-11-01T21:05:28.318Z,3.83
2022-11-01T21:08:15.433Z,3.50
2022-11-01T21:10:42.917Z,4.15
2022-11-01T21:13:22.630Z,3.65
2022-11-01T21:15:50.254Z,4.18
2022-11-01T21:18:17.370Z,3.95
2022-11-01T21:20:49.020Z,4.00
2022-11-01T21:23:35.868Z,3.45
2022-11-01T21:26:26.670Z,3.65
2022-11-01T21:28:55.012Z,6.43
2022-11-01T21:31:27.762Z,6.03
2022-11-01T21:34:17.113Z,6.20
2022-11-01T21:36:46.853Z,6.15
2022-11-01T21:39:22.726Z,6.65
2022-11-01T21:41:56.331Z,5.63
2022-11-01T21:44:45.420Z,6.20
2022-11-01T21:47:19.285Z,5.55
2022-11-01T21:49:46.212Z,4.25
2022-11-01T21:52:13.720Z,5.20
2022-11-01T21:54:41.144Z,6.00
2022-11-01T21:57:09.481Z,5.22
2022-11-01T21:59:36.617Z,4.95
2022-11-01T22:02:04.211Z,4.28
2022-11-01T22:04:31.686Z,3.80
2022-11-01T22:07:03.839Z,3.40
2022-11-01T22:09:31.204Z,3.15
2022-11-01T22:11:59.237Z,3.17
2022-11-01T22:14:26.392Z,3.28
2022-11-01T22:16:53.324Z,2.95
2022-11-01T22:19:20.584Z,2.83
2022-11-01T22:21:47.120Z,3.67
2022-11-01T22:24:13.770Z,3.55
2022-11-01T22:26:40.317Z,3.20
2022-11-01T22:29:06.833Z,3.47
2022-11-01T22:31:33.468Z,2.60
2022-11-01T22:34:01.195Z,2.53
2022-11-01T22:36:29.485Z,2.30
2022-11-01T22:39:00.215Z,49.35
2022-11-01T22:41:36.956Z,2.85
2022-11-01T22:44:05.911Z,26.38
2022-11-01T22:46:43.676Z,2.28
2022-11-01T22:49:17.913Z,2.15
2022-11-01T22:51:46.629Z,999.90
2022-11-01T22:54:38.059Z,999.90
2022-11-01T22:57:28.351Z,999.90
2022-11-01T22:59:57.270Z,999.90
2022-11-01T23:02:35.134Z,511.10
2022-11-01T23:05:07.981Z,2.25
2022-11-01T23:07:48.963Z,2.63
2022-11-01T23:10:31.081Z,2.30
2022-11-01T23:13:30.387Z,2.40
2022-11-01T23:16:06.123Z,2.30
2022-11-01T23:18:33.736Z,2.35
2022-11-01T23:21:06.691Z,1.98
2022-11-01T23:23:43.853Z,2.15
2022-11-01T23:26:12.101Z,2.03
2022-11-01T23:28:43.563Z,2.03
2022-11-01T23:31:10.150Z,1.95
2022-11-01T23:33:55.096Z,2.08
2022-11-01T23:36:26.585Z,2.05
2022-11-01T23:41:30.060Z,2.10
2022-11-01T23:44:02.219Z,2.50
2022-11-01T23:46:29.063Z,2.22
2022-11-01T23:49:18.094Z,2.35
2022-11-01T23:51:45.035Z,2.60
2022-11-01T23:54:19.063Z,2.63
2022-11-01T23:56:45.949Z,2.58
2022-11-01T23:59:13.128Z,2.10
